Time;durP1;ratioP1;P1;durP2;ratioP2;P2;SDS_P1;SDS_P2;PMS_P1;PMS_P2;Temp;Humidity;BMP_temperature;BMP_pressure;BME280_temperature;BME280_humidity;BME280_pressure;Samples;Min_cycle;Max_cycle;Signal;HPM_P1;HPM_P2
2021/03/06 00:02:36;;;;;;;2.20;1.00;;;;;;;-0.95;55.26;102214.88;6166541;29;20220;-74
2021/03/06 00:05:40;;;;;;;1.23;1.23;;;;;;;-0.94;55.15;102213.91;6166408;29;20189;-74
2021/03/06 00:08:44;;;;;;;1.60;1.50;;;;;;;-0.96;55.15;102208.66;6166373;29;20206;-74
2021/03/06 00:11:48;;;;;;;7.03;1.50;;;;;;;-0.95;55.13;102196.13;6166613;29;20199;-74
2021/03/06 00:14:51;;;;;;;1.30;1.30;;;;;;;-0.79;54.72;102196.72;6166114;29;20189;-74
2021/03/06 00:17:55;;;;;;;8.60;1.40;;;;;;;-0.84;55.10;102190.81;6165177;29;20411;-74
2021/03/06 00:20:58;;;;;;;1.23;1.23;;;;;;;-0.97;55.31;102195.34;6166331;29;20224;-74
2021/03/06 00:24:21;;;;;;;1.43;1.37;;;;;;;-0.98;55.99;102199.03;6165338;29;20188;-74
2021/03/06 00:27:26;;;;;;;2.17;1.13;;;;;;;-1.03;56.11;102193.13;6165954;29;20215;-74
2021/03/06 00:30:30;;;;;;;1.20;1.20;;;;;;;-0.83;55.77;102197.91;6164880;29;20393;-74
2021/03/06 00:33:33;;;;;;;1.73;1.63;;;;;;;-0.87;55.76;102191.03;6165031;29;20417;-74
2021/03/06 00:36:37;;;;;;;1.40;1.30;;;;;;;-0.83;55.31;102181.84;6165330;29;20252;-74
2021/03/06 00:39:40;;;;;;;3.13;1.50;;;;;;;-0.95;55.43;102178.19;6165971;29;20263;-74
2021/03/06 00:42:44;;;;;;;4.70;1.80;;;;;;;-1.00;56.03;102176.84;6164750;29;20386;-74
2021/03/06 00:45:47;;;;;;;1.70;1.53;;;;;;;-0.86;56.06;102161.47;6163761;29;20392;-74
2021/03/06 00:48:51;;;;;;;1.20;1.20;;;;;;;-0.72;56.05;102157.81;6164529;29;20213;-74
2021/03/06 00:51:55;;;;;;;2.90;1.37;;;;;;;-0.71;55.77;102163.03;6165879;29;20216;-74
2021/03/06 00:54:59;;;;;;;2.73;1.20;;;;;;;-0.76;55.89;102150.94;6179918;28;20203;-74
2021/03/06 00:58:04;;;;;;;1.27;1.27;;;;;;;-0.66;55.45;102147.47;6164426;29;20220;-74
2021/03/06 01:01:10;;;;;;;1.43;1.30;;;;;;;-0.76;56.19;102140.22;6164262;29;20433;-74
2021/03/06 01:04:16;;;;;;;1.30;1.20;;;;;;;-0.88;56.94;102135.75;6165434;29;20195;-74
2021/03/06 01:07:19;;;;;;;1.17;1.17;;;;;;;-0.91;56.15;102126.13;6163822;29;20379;-74
2021/03/06 01:10:27;;;;;;;1.30;1.30;;;;;;;-0.82;56.89;102119.22;6165435;29;20232;-74
2021/03/06 01:13:31;;;;;;;3.87;1.20;;;;;;;-0.76;57.44;102124.13;6165562;29;20229;-74
2021/03/06 01:16:34;;;;;;;1.10;1.10;;;;;;;-0.72;56.72;102109.56;6165907;29;20229;-74
2021/03/06 01:19:38;;;;;;;1.50;1.20;;;;;;;-0.83;56.71;102110.34;6164136;29;20446;-74
2021/03/06 01:22:41;;;;;;;1.40;1.13;;;;;;;-0.67;56.42;102096.66;6165576;28;20188;-74
2021/03/06 01:25:44;;;;;;;1.20;1.20;;;;;;;-0.53;55.89;102083.06;6165466;29;20255;-74
2021/03/06 01:28:48;;;;;;;2.57;1.30;;;;;;;-0.51;56.08;102085.66;6165351;29;20235;-74
2021/03/06 01:31:51;;;;;;;10.13;1.37;;;;;;;-0.57;55.79;102086.97;6165084;29;20215;-74
2021/03/06 01:34:55;;;;;;;1.50;1.40;;;;;;;-0.59;56.59;102078.16;6165486;28;20189;-74
2021/03/06 01:37:58;;;;;;;1.10;1.10;;;;;;;-0.60;55.75;102081.84;6164183;29;20471;-73
2021/03/06 01:41:02;;;;;;;3.73;1.10;;;;;;;-0.48;55.68;102078.22;6165382;29;20215;-73
2021/03/06 01:44:08;;;;;;;3.70;1.00;;;;;;;-0.58;55.58;102058.44;6165010;29;20188;-73
2021/03/06 01:47:14;;;;;;;1.03;1.03;;;;;;;-0.67;55.73;102053.78;6165315;29;20191;-74
2021/03/06 01:50:22;;;;;;;1.37;1.37;;;;;;;-0.54;55.67;102048.34;6165117;29;20199;-73
2021/03/06 01:53:25;;;;;;;0.93;0.93;;;;;;;-0.65;56.58;102049.16;6163883;29;20190;-74
2021/03/06 01:56:31;;;;;;;0.97;0.97;;;;;;;-0.52;56.36;102036.53;6164440;29;20291;-74
2021/03/06 01:59:35;;;;;;;2.43;1.30;;;;;;;-0.57;56.36;102038.72;6163702;29;20189;-73
2021/03/06 02:02:39;;;;;;;1.30;1.30;;;;;;;-0.47;55.21;102029.00;6186277;23;20237;-74
2021/03/06 02:05:43;;;;;;;1.50;1.13;;;;;;;-0.56;55.70;102023.47;6188053;28;20219;-74
2021/03/06 02:08:47;;;;;;;1.20;1.10;;;;;;;-0.65;56.58;102008.94;6188042;28;20188;-75
2021/03/06 02:11:54;;;;;;;10.13;6.30;;;;;;;-0.65;56.91;102003.59;6188805;28;20238;-75
2021/03/06 02:15:14;;;;;;;1.60;1.30;;;;;;;-0.58;56.16;102004.81;6188602;28;20195;-75
2021/03/06 02:18:27;;;;;;;1.00;1.00;;;;;;;-0.62;56.69;102004.19;6188262;28;20192;-74
2021/03/06 02:21:35;;;;;;;1.40;1.10;;;;;;;-0.64;56.69;101994.56;6191785;28;20293;-74
2021/03/06 02:24:59;;;;;;;1.00;1.00;;;;;;;-0.48;55.99;101984.38;6193120;28;20236;-74
2021/03/06 02:28:13;;;;;;;0.93;0.90;;;;;;;-0.42;55.65;101978.56;6193428;28;20195;-74
2021/03/06 02:31:19;;;;;;;1.17;1.07;;;;;;;-0.51;55.88;101973.88;6193068;28;20276;-73
2021/03/06 02:34:28;;;;;;;1.10;1.10;;;;;;;-0.42;55.71;101965.16;6191673;28;20387;-75
2021/03/06 02:37:35;;;;;;;6.47;1.20;;;;;;;-0.43;55.55;101957.19;6191495;28;20418;-74
2021/03/06 02:40:39;;;;;;;0.90;0.90;;;;;;;-0.42;55.79;101957.09;6192305;28;20243;-75
2021/03/06 02:43:43;;;;;;;1.20;1.10;;;;;;;-0.40;55.88;101955.16;6192757;28;20195;-74
2021/03/06 02:46:47;;;;;;;0.90;0.90;;;;;;;-0.32;55.77;101952.72;6192579;28;20188;-74
2021/03/06 02:49:52;;;;;;;1.10;1.00;;;;;;;-0.35;54.86;101933.34;6192454;28;20188;-74
2021/03/06 02:52:55;;;;;;;1.03;1.03;;;;;;;-0.35;55.01;101920.78;6192228;28;20192;-74
2021/03/06 02:56:16;;;;;;;1.27;1.07;;;;;;;-0.16;54.18;101921.06;6192240;28;20255;-74
2021/03/06 02:59:52;;;;;;;7.80;1.10;;;;;;;-0.15;54.54;101906.66;6191031;28;20398;-74
2021/03/06 03:03:09;;;;;;;2.70;1.07;;;;;;;-0.13;54.37;101903.84;6191282;28;20598;-73
2021/03/06 03:06:17;;;;;;;0.90;0.90;;;;;;;-0.03;54.48;101902.97;6192011;28;20193;-74
2021/03/06 03:09:22;;;;;;;1.23;1.13;;;;;;;-0.03;54.29;101889.56;6192174;28;20224;-74
2021/03/06 03:12:34;;;;;;;0.93;0.90;;;;;;;-0.08;54.14;101897.13;6191987;28;20216;-74
2021/03/06 03:15:39;;;;;;;3.43;0.90;;;;;;;0.08;54.00;101879.81;6191685;28;20210;-74
2021/03/06 03:18:50;;;;;;;0.97;0.97;;;;;;;0.08;54.07;101875.28;6190690;28;20492;-75
2021/03/06 03:21:56;;;;;;;1.47;1.10;;;;;;;0.22;53.41;101876.84;6191560;28;20235;-75
2021/03/06 03:25:01;;;;;;;1.33;1.10;;;;;;;0.26;53.36;101883.66;6191656;28;20189;-75
2021/03/06 03:28:07;;;;;;;0.90;0.90;;;;;;;0.22;53.29;101876.84;6191847;28;20235;-75
2021/03/06 03:31:11;;;;;;;2.43;1.00;;;;;;;0.19;53.44;101877.09;6191319;28;20224;-74
2021/03/06 03:34:19;;;;;;;2.43;0.97;;;;;;;0.18;54.06;101870.03;6191577;28;20253;-75
2021/03/06 03:37:24;;;;;;;7.10;1.00;;;;;;;0.29;53.84;101878.03;6191912;28;20194;-75
2021/03/06 03:40:28;;;;;;;9.60;1.20;;;;;;;0.21;53.52;101861.72;6191380;28;20212;-75
2021/03/06 03:43:32;;;;;;;1.00;1.00;;;;;;;0.28;53.94;101871.00;6191178;28;20187;-75
2021/03/06 03:46:35;;;;;;;2.47;1.00;;;;;;;0.30;54.37;101874.41;6191253;28;20221;-75
2021/03/06 03:49:40;;;;;;;4.13;1.00;;;;;;;0.27;54.69;101866.59;6191250;28;20190;-75
2021/03/06 03:52:45;;;;;;;1.27;0.87;;;;;;;0.38;54.20;101850.47;6190351;28;20260;-75
2021/03/06 03:55:48;;;;;;;0.90;0.90;;;;;;;0.55;53.79;101852.59;6190111;28;20262;-75
2021/03/06 03:58:51;;;;;;;1.20;1.00;;;;;;;0.56;54.00;101854.31;6190768;28;20188;-75
2021/03/06 04:01:55;;;;;;;0.97;0.97;;;;;;;0.67;53.63;101830.06;6190615;28;20233;-75
2021/03/06 04:04:59;;;;;;;1.17;1.07;;;;;;;0.64;53.68;101814.22;6190681;28;20197;-75
2021/03/06 04:08:05;;;;;;;1.40;1.00;;;;;;;0.76;53.88;101807.81;6190962;28;20212;-75
2021/03/06 04:11:09;;;;;;;0.90;0.90;;;;;;;0.61;55.04;101809.13;6189624;28;20216;-74
2021/03/06 04:14:12;;;;;;;1.07;1.07;;;;;;;0.60;54.94;101807.41;6189797;28;20495;-75
2021/03/06 04:17:16;;;;;;;1.70;1.10;;;;;;;0.61;55.03;101819.84;6190612;28;20208;-75
2021/03/06 04:20:22;;;;;;;1.70;0.90;;;;;;;0.65;55.18;101794.44;6189085;28;20433;-75
2021/03/06 04:23:25;;;;;;;1.00;1.00;;;;;;;0.76;54.82;101791.69;6190579;28;20221;-75
2021/03/06 04:26:29;;;;;;;1.00;1.00;;;;;;;0.78;54.85;101773.59;6189210;28;20250;-74
2021/03/06 04:29:32;;;;;;;1.00;1.00;;;;;;;0.83;55.23;101771.38;6190347;28;20262;-73
2021/03/06 04:32:35;;;;;;;2.10;0.77;;;;;;;0.82;55.73;101764.31;6189028;28;20386;-74
2021/03/06 04:35:39;;;;;;;1.00;1.00;;;;;;;0.89;55.09;101756.56;6190175;28;20261;-75
2021/03/06 04:38:45;;;;;;;1.60;1.00;;;;;;;0.76;56.13;101743.34;6188842;28;20497;-75
2021/03/06 04:41:48;;;;;;;0.90;0.90;;;;;;;0.70;56.36;101749.22;6188937;28;20218;-75
2021/03/06 04:44:51;;;;;;;1.80;1.00;;;;;;;0.74;56.33;101734.56;6190094;28;20189;-74
2021/03/06 04:47:55;;;;;;;0.80;0.80;;;;;;;0.91;56.21;101725.91;6189489;28;20245;-74
2021/03/06 04:51:00;;;;;;;0.90;0.90;;;;;;;0.79;57.04;101720.72;6204320;28;20214;-75
2021/03/06 04:54:03;;;;;;;1.10;1.10;;;;;;;0.80;56.68;101707.16;6189462;28;20190;-74
2021/03/06 04:57:11;;;;;;;0.83;0.83;;;;;;;0.88;56.41;101717.22;6189761;28;20253;-74
2021/03/06 05:00:15;;;;;;;0.87;0.87;;;;;;;0.98;56.56;101716.31;6189786;28;20190;-75
2021/03/06 05:03:21;;;;;;;0.97;0.97;;;;;;;0.79;56.96;101694.72;6189371;28;20254;-75
2021/03/06 05:06:25;;;;;;;0.90;0.90;;;;;;;0.94;56.71;101693.38;6189825;28;20187;-75
2021/03/06 05:09:28;;;;;;;0.93;0.93;;;;;;;0.86;57.07;101695.88;6189639;28;20190;-75
2021/03/06 05:12:31;;;;;;;0.80;0.80;;;;;;;1.03;56.29;101708.69;6189460;28;20194;-75
2021/03/06 05:15:34;;;;;;;0.80;0.80;;;;;;;1.02;56.22;101696.25;6189653;28;20194;-75
2021/03/06 05:18:38;;;;;;;0.80;0.80;;;;;;;1.01;56.13;101694.53;6189400;28;20212;-75
2021/03/06 05:21:42;;;;;;;1.90;0.80;;;;;;;0.94;56.14;101688.00;6189188;28;20285;-75
2021/03/06 05:24:45;;;;;;;0.80;0.80;;;;;;;1.11;56.12;101679.31;6189198;28;20256;-75
2021/03/06 05:28:13;;;;;;;0.93;0.93;;;;;;;1.24;55.84;101668.31;6189265;28;20195;-74
2021/03/06 05:31:18;;;;;;;0.90;0.90;;;;;;;1.27;55.93;101673.41;6189318;28;20194;-74
2021/03/06 05:34:22;;;;;;;6.43;1.03;;;;;;;1.23;55.72;101655.88;6189504;28;20189;-74
2021/03/06 05:37:26;;;;;;;1.03;0.70;;;;;;;1.36;55.99;101666.38;6189617;28;20194;-74
2021/03/06 05:40:31;;;;;;;1.53;0.90;;;;;;;1.34;56.33;101649.50;6189325;28;20194;-74
2021/03/06 05:43:35;;;;;;;0.80;0.80;;;;;;;1.37;56.41;101662.69;6189055;28;20222;-74
2021/03/06 05:46:38;;;;;;;1.00;0.90;;;;;;;1.40;56.02;101657.03;6188084;28;20470;-74
2021/03/06 05:49:42;;;;;;;0.90;0.90;;;;;;;1.31;56.64;101641.75;6188989;28;20184;-74
2021/03/06 05:52:48;;;;;;;2.57;0.97;;;;;;;1.43;56.81;101651.38;6188331;28;20450;-74
2021/03/06 05:55:54;;;;;;;1.63;0.80;;;;;;;1.47;56.62;101642.03;6193598;28;20256;-74
2021/03/06 05:58:57;;;;;;;3.50;0.90;;;;;;;1.51;56.80;101632.72;6193710;28;20190;-74
2021/03/06 06:02:00;;;;;;;1.77;0.97;;;;;;;1.52;56.91;101629.88;6192910;28;20310;-74
2021/03/06 06:05:05;;;;;;;3.40;0.93;;;;;;;1.59;57.10;101624.81;6193608;28;20200;-74
2021/03/06 06:08:14;;;;;;;6.77;1.50;;;;;;;1.60;57.34;101643.50;6192622;28;20191;-74
2021/03/06 06:11:18;;;;;;;0.80;0.80;;;;;;;1.78;56.78;101630.19;6193063;28;20195;-74
2021/03/06 06:14:21;;;;;;;1.77;1.10;;;;;;;1.64;57.31;101617.16;6192098;28;20190;-74
2021/03/06 06:17:24;;;;;;;1.00;1.00;;;;;;;1.63;57.70;101604.69;6193362;28;20251;-74
2021/03/06 06:20:28;;;;;;;3.00;0.97;;;;;;;1.58;58.09;101588.13;6192973;28;20191;-74
2021/03/06 06:23:32;;;;;;;0.80;0.80;;;;;;;1.40;58.45;101596.06;6193113;28;20242;-75
2021/03/06 06:26:37;;;;;;;1.07;1.07;;;;;;;1.37;58.88;101576.66;6192910;28;20187;-74
2021/03/06 06:29:41;;;;;;;1.17;0.80;;;;;;;1.42;59.68;101595.91;6192054;28;20187;-74
2021/03/06 06:32:46;;;;;;;1.23;0.80;;;;;;;1.51;59.48;101595.94;6191911;28;20477;-74
2021/03/06 06:35:49;;;;;;;2.27;0.90;;;;;;;1.70;59.04;101587.00;6192660;28;20188;-74
2021/03/06 06:38:54;;;;;;;1.07;0.90;;;;;;;1.79;58.87;101588.84;6192623;28;20197;-74
2021/03/06 06:41:59;;;;;;;1.00;1.00;;;;;;;1.69;59.52;101582.63;6192844;28;20212;-74
2021/03/06 06:45:04;;;;;;;0.80;0.80;;;;;;;1.85;58.94;101599.03;6191604;28;20488;-75
2021/03/06 06:48:16;;;;;;;1.00;0.90;;;;;;;1.94;59.08;101583.88;6192710;28;20194;-74
2021/03/06 06:51:19;;;;;;;3.73;1.00;;;;;;;1.90;59.62;101591.38;6191979;28;20191;-75
2021/03/06 06:54:23;;;;;;;2.77;0.90;;;;;;;1.67;60.52;101584.63;6192896;28;20219;-75
2021/03/06 06:57:28;;;;;;;0.90;0.90;;;;;;;1.81;60.26;101566.19;6191607;28;20222;-75
2021/03/06 07:00:33;;;;;;;3.10;0.90;;;;;;;1.85;60.43;101572.13;6192144;28;20188;-74
2021/03/06 07:03:36;;;;;;;0.90;0.90;;;;;;;1.91;60.70;101563.47;6192050;28;20246;-74
2021/03/06 07:06:39;;;;;;;4.70;1.20;;;;;;;1.85;60.15;101572.13;6191609;28;20214;-75
2021/03/06 07:10:04;;;;;;;0.80;0.80;;;;;;;1.93;60.21;101564.19;6192002;28;20223;-74
2021/03/06 07:13:10;;;;;;;1.80;1.00;;;;;;;1.75;61.01;101558.69;6191826;28;20191;-75
2021/03/06 07:16:13;;;;;;;0.80;0.80;;;;;;;1.87;61.36;101559.38;6190771;28;20428;-75
2021/03/06 07:19:17;;;;;;;1.43;0.90;;;;;;;1.87;60.94;101559.38;6190910;28;20220;-74
2021/03/06 07:22:28;;;;;;;2.20;1.20;;;;;;;1.99;60.65;101552.00;6190634;28;20217;-75
2021/03/06 07:25:32;;;;;;;0.77;0.77;;;;;;;2.04;60.80;101555.94;6191616;28;20257;-75
2021/03/06 07:28:35;;;;;;;1.07;0.90;;;;;;;1.95;61.09;101546.06;6190865;28;20237;-75
2021/03/06 07:31:39;;;;;;;3.20;0.90;;;;;;;1.98;61.35;101539.56;6191195;28;20210;-75
2021/03/06 07:34:45;;;;;;;0.97;0.97;;;;;;;2.24;60.26;101536.06;6191270;28;20219;-76
2021/03/06 07:37:50;;;;;;;0.87;0.80;;;;;;;2.15;60.92;101534.25;6191650;28;20187;-74
2021/03/06 07:40:59;;;;;;;0.70;0.70;;;;;;;2.29;60.35;101528.41;6190644;28;20195;-75
2021/03/06 07:44:02;;;;;;;0.90;0.90;;;;;;;2.38;60.30;101529.38;6190966;28;20214;-75
2021/03/06 07:47:09;;;;;;;4.00;0.73;;;;;;;2.42;60.49;101522.69;6191384;28;20222;-74
2021/03/06 07:50:19;;;;;;;1.77;1.00;;;;;;;2.41;60.22;101527.22;6190893;28;20186;-74
2021/03/06 07:53:22;;;;;;;7.90;0.90;;;;;;;2.34;60.33;101520.72;6190126;28;20402;-75
2021/03/06 07:56:27;;;;;;;0.70;0.70;;;;;;;2.40;60.58;101503.97;6191157;28;20194;-75
2021/03/06 07:59:55;;;;;;;5.40;0.83;;;;;;;2.36;60.52;101496.34;6189589;28;20383;-75
2021/03/06 08:02:59;;;;;;;0.77;0.77;;;;;;;2.42;60.23;101507.38;6189818;28;20247;-75
2021/03/06 08:06:16;;;;;;;0.87;0.87;;;;;;;2.52;59.79;101507.31;6190575;28;20187;-74
2021/03/06 08:09:19;;;;;;;3.20;1.10;;;;;;;2.66;59.89;101497.91;6189530;28;20265;-74
2021/03/06 08:12:31;;;;;;;9.97;1.07;;;;;;;2.66;60.13;101479.03;6189777;28;20259;-74
2021/03/06 08:15:35;;;;;;;5.73;0.90;;;;;;;2.62;60.38;101474.97;6189342;28;20508;-74
2021/03/06 08:18:39;;;;;;;0.80;0.80;;;;;;;2.64;60.44;101479.22;6189334;28;20527;-74
2021/03/06 08:21:44;;;;;;;0.80;0.80;;;;;;;2.53;60.75;101472.16;6190261;28;20288;-74
2021/03/06 08:24:47;;;;;;;0.80;0.80;;;;;;;2.42;61.40;101475.06;6190260;28;20187;-75
2021/03/06 08:28:20;;;;;;;0.73;0.73;;;;;;;2.44;61.32;101467.66;6190105;28;20227;-75
2021/03/06 08:31:39;;;;;;;0.90;0.90;;;;;;;2.58;61.68;101458.25;6190415;28;20193;-75
2021/03/06 08:34:45;;;;;;;0.90;0.90;;;;;;;2.54;61.05;101446.09;6190444;28;20235;-75
2021/03/06 08:37:50;;;;;;;1.03;0.80;;;;;;;2.52;61.33;101438.13;6189879;28;20191;-75
2021/03/06 08:40:54;;;;;;;11.20;1.00;;;;;;;2.79;61.18;101433.72;6188992;28;20474;-74
2021/03/06 08:43:58;;;;;;;4.53;0.83;;;;;;;2.92;60.72;101426.13;6188612;28;20224;-74
2021/03/06 08:47:02;;;;;;;4.07;0.80;;;;;;;3.03;59.88;101436.69;6189965;28;20221;-74
2021/03/06 08:50:09;;;;;;;1.07;1.00;;;;;;;2.93;60.38;101433.19;6189822;28;20189;-74
2021/03/06 08:53:14;;;;;;;1.87;0.97;;;;;;;3.06;60.40;101414.78;6188573;28;20195;-74
2021/03/06 08:56:19;;;;;;;0.77;0.60;;;;;;;3.18;60.24;101413.56;6188457;28;20261;-74
2021/03/06 08:59:37;;;;;;;2.23;0.80;;;;;;;3.17;59.94;101384.88;6189353;28;20214;-75
2021/03/06 09:02:41;;;;;;;3.97;0.90;;;;;;;3.11;60.17;101383.66;6188137;28;20266;-75
2021/03/06 09:05:46;;;;;;;1.13;0.90;;;;;;;3.02;60.01;101389.16;6188316;28;20224;-75
2021/03/06 09:08:53;;;;;;;13.53;1.63;;;;;;;3.05;60.05;101391.53;6188352;28;20304;-74
2021/03/06 09:11:58;;;;;;;0.70;0.70;;;;;;;3.31;59.36;101376.25;6189159;28;20193;-74
2021/03/06 09:15:02;;;;;;;7.43;1.00;;;;;;;3.50;59.43;101376.03;6188274;28;20187;-74
2021/03/06 09:18:11;;;;;;;0.80;0.80;;;;;;;3.47;59.16;101379.03;6189068;28;20247;-74
2021/03/06 09:21:20;;;;;;;7.07;0.80;;;;;;;3.58;59.32;101346.41;6189101;28;20227;-74
2021/03/06 09:24:23;;;;;;;1.83;0.80;;;;;;;3.63;58.90;101348.63;6189315;28;20262;-74
2021/03/06 09:27:42;;;;;;;6.83;1.00;;;;;;;3.69;58.65;101356.94;6189081;28;20193;-75
2021/03/06 09:31:10;;;;;;;4.23;1.00;;;;;;;3.92;58.52;101345.59;6194081;28;20199;-74
2021/03/06 09:34:14;;;;;;;7.57;1.20;;;;;;;3.97;58.38;101329.75;6193007;28;20523;-74
2021/03/06 09:37:18;;;;;;;9.97;1.20;;;;;;;4.05;58.15;101327.06;6193754;28;20205;-74
2021/03/06 09:40:23;;;;;;;8.47;1.10;;;;;;;4.16;57.38;101307.88;6193552;28;20237;-74
2021/03/06 09:43:31;;;;;;;0.87;0.83;;;;;;;4.14;57.12;101305.34;6192576;28;20263;-74
2021/03/06 09:46:36;;;;;;;2.73;1.30;;;;;;;4.15;56.94;101284.59;6192722;28;20382;-74
2021/03/06 09:49:41;;;;;;;5.00;1.23;;;;;;;4.33;56.23;101282.59;6192343;28;20253;-72
2021/03/06 09:52:46;;;;;;;4.43;1.00;;;;;;;4.39;56.05;101276.53;6193671;28;20194;-74
2021/03/06 09:56:03;;;;;;;7.47;1.17;;;;;;;4.46;55.42;101279.41;6193126;28;20220;-74
2021/03/06 09:59:06;;;;;;;1.00;0.90;;;;;;;4.53;55.96;101262.34;6193679;28;20257;-74
2021/03/06 10:02:11;;;;;;;6.43;0.90;;;;;;;4.60;54.90;101257.97;6192983;28;20286;-74
2021/03/06 10:05:23;;;;;;;4.20;1.20;;;;;;;4.54;55.32;101258.66;6193555;28;20192;-73
2021/03/06 10:08:28;;;;;;;3.50;1.13;;;;;;;4.57;55.41;101247.50;6192429;28;20200;-74
2021/03/06 10:11:35;;;;;;;6.93;0.90;;;;;;;4.73;55.12;101244.78;6191731;28;20497;-72
2021/03/06 10:14:40;;;;;;;11.03;1.00;;;;;;;4.78;55.31;101247.84;6191575;28;20507;-74
2021/03/06 10:17:43;;;;;;;3.43;1.07;;;;;;;4.77;55.45;101243.47;6191828;28;20473;-74
2021/03/06 10:20:48;;;;;;;7.33;0.90;;;;;;;4.92;54.78;101230.94;6192783;28;20195;-75
2021/03/06 10:24:01;;;;;;;6.57;0.90;;;;;;;5.10;54.31;101221.78;6191642;28;20546;-74
2021/03/06 10:27:05;;;;;;;0.73;0.73;;;;;;;5.03;54.80;101211.63;6192713;28;20214;-74
2021/03/06 10:30:15;;;;;;;1.93;0.93;;;;;;;5.03;53.86;101206.22;6191640;28;20493;-76
2021/03/06 10:33:22;;;;;;;8.40;0.87;;;;;;;5.03;54.88;101219.75;6193075;28;20216;-73
2021/03/06 10:36:26;;;;;;;4.47;1.20;;;;;;;5.24;53.69;101215.66;6191764;28;20496;-74
2021/03/06 10:39:29;;;;;;;22.57;1.13;;;;;;;5.22;53.53;101204.16;6190243;28;20198;-74
2021/03/06 10:42:45;;;;;;;1.03;0.80;;;;;;;5.27;54.23;101205.31;6191687;28;20392;-74
2021/03/06 10:45:48;;;;;;;9.60;1.10;;;;;;;5.35;53.82;101193.63;6192806;28;20219;-75
2021/03/06 10:48:56;;;;;;;0.97;0.70;;;;;;;5.38;53.70;101187.88;6192745;28;20258;-74
2021/03/06 10:52:01;;;;;;;2.93;0.90;;;;;;;5.47;53.67;101198.47;6192448;28;20257;-75
2021/03/06 10:55:07;;;;;;;16.90;1.70;;;;;;;5.48;53.78;101188.50;6191196;28;20529;-74
2021/03/06 10:58:11;;;;;;;1.60;0.90;;;;;;;5.46;53.88;101177.03;6192372;28;20196;-74
2021/03/06 11:01:16;;;;;;;0.80;0.80;;;;;;;5.48;53.86;101156.03;6192478;28;20199;-74
2021/03/06 11:04:27;;;;;;;0.97;0.70;;;;;;;5.58;54.23;101156.66;6191754;28;20577;-73
2021/03/06 11:07:31;;;;;;;2.80;0.87;;;;;;;5.72;53.76;101153.22;6191283;28;20190;-73
2021/03/06 11:10:39;;;;;;;1.80;0.80;;;;;;;5.73;53.75;101154.88;6192181;28;20236;-73
2021/03/06 11:13:44;;;;;;;2.77;0.70;;;;;;;5.70;53.98;101149.81;6192465;28;20225;-74
2021/03/06 11:16:47;;;;;;;8.63;1.00;;;;;;;5.89;53.56;101133.16;6190873;28;20388;-73
2021/03/06 11:19:50;;;;;;;2.77;0.60;;;;;;;5.84;53.59;101129.28;6192086;28;20194;-73
2021/03/06 11:22:55;;;;;;;0.80;0.80;;;;;;;5.97;53.10;101119.56;6190823;28;20217;-73
2021/03/06 11:25:59;;;;;;;2.27;0.73;;;;;;;5.92;53.72;101121.97;6193803;28;20418;-73
2021/03/06 11:29:03;;;;;;;2.03;0.70;;;;;;;6.01;53.29;101120.88;6194849;28;20228;-75
2021/03/06 11:32:20;;;;;;;6.00;0.90;;;;;;;6.03;53.01;101121.56;6192594;28;20241;-73
2021/03/06 11:35:25;;;;;;;0.70;0.70;;;;;;;6.00;53.23;101102.97;6191368;28;20190;-75
2021/03/06 11:38:30;;;;;;;2.00;1.07;;;;;;;6.15;52.95;101090.31;6191246;28;20201;-74
2021/03/06 11:41:34;;;;;;;2.00;0.70;;;;;;;6.21;53.06;101092.28;6191156;28;20197;-75
2021/03/06 11:44:37;;;;;;;11.40;1.10;;;;;;;6.22;52.86;101080.41;6191665;28;20220;-75
2021/03/06 11:47:40;;;;;;;6.50;0.87;;;;;;;6.29;52.97;101065.09;6189855;28;20458;-74
2021/03/06 11:50:47;;;;;;;5.93;1.00;;;;;;;6.36;52.43;101053.53;6189268;28;20192;-75
2021/03/06 11:53:52;;;;;;;1.87;1.10;;;;;;;6.28;52.89;101047.19;6189735;28;20232;-75
2021/03/06 11:56:55;;;;;;;8.73;1.07;;;;;;;6.44;52.37;101046.19;6190432;28;20245;-74
2021/03/06 11:59:58;;;;;;;2.07;0.90;;;;;;;6.53;52.43;101028.78;6190632;28;20197;-74
2021/03/06 12:03:01;;;;;;;8.03;1.10;;;;;;;6.52;52.52;101018.16;6189740;28;20241;-74
2021/03/06 12:06:06;;;;;;;3.30;0.90;;;;;;;6.62;52.18;101021.41;6190382;28;20190;-74
2021/03/06 12:09:13;;;;;;;3.20;0.70;;;;;;;6.65;51.66;101016.44;6189426;28;20426;-74
2021/03/06 12:12:16;;;;;;;11.50;1.10;;;;;;;6.81;51.60;100997.28;6189219;28;20269;-74
2021/03/06 12:15:19;;;;;;;4.77;1.30;;;;;;;6.73;51.48;100985.69;6190644;28;20241;-74
2021/03/06 12:18:24;;;;;;;3.87;1.10;;;;;;;6.78;51.41;100984.09;6190451;28;20190;-73
2021/03/06 12:21:27;;;;;;;0.80;0.73;;;;;;;6.85;50.84;100974.19;6189193;28;20213;-74
2021/03/06 12:24:31;;;;;;;5.20;0.80;;;;;;;6.86;51.02;100958.72;6204961;28;20254;-74
2021/03/06 12:27:35;;;;;;;3.47;1.17;;;;;;;6.94;51.02;100964.06;6188212;28;20367;-73
2021/03/06 12:30:39;;;;;;;1.63;0.80;;;;;;;6.98;50.54;100959.94;6189610;28;20191;-73
2021/03/06 12:33:42;;;;;;;4.27;0.90;;;;;;;6.91;51.01;100951.72;6189412;28;20293;-74
2021/03/06 12:36:46;;;;;;;4.70;1.33;;;;;;;6.94;50.59;100934.22;6189983;28;20190;-73
2021/03/06 12:39:50;;;;;;;8.90;1.27;;;;;;;6.94;50.38;100947.78;6188719;28;20222;-73
2021/03/06 12:42:53;;;;;;;11.33;1.10;;;;;;;6.89;50.71;100937.50;6189347;28;20237;-73
2021/03/06 12:45:56;;;;;;;9.13;1.13;;;;;;;6.83;51.22;100926.59;6189670;28;20221;-74
2021/03/06 12:49:00;;;;;;;16.43;1.53;;;;;;;6.94;50.98;100923.38;6188760;28;20197;-74
2021/03/06 12:52:04;;;;;;;9.67;1.20;;;;;;;6.88;51.08;100918.72;6188436;28;20563;-74
2021/03/06 12:55:13;;;;;;;0.80;0.70;;;;;;;7.01;51.11;100910.72;6188227;28;20481;-73
2021/03/06 12:58:17;;;;;;;7.40;1.00;;;;;;;6.93;51.36;100902.72;6189851;28;20274;-73
2021/03/06 13:01:20;;;;;;;6.57;0.90;;;;;;;6.81;51.62;100890.66;6188910;28;20225;-74
2021/03/06 13:04:24;;;;;;;3.20;0.77;;;;;;;6.97;51.51;100906.72;6188728;28;20244;-74
2021/03/06 13:07:28;;;;;;;1.30;0.70;;;;;;;6.74;51.93;100900.59;6189083;28;20230;-73
2021/03/06 13:10:32;;;;;;;8.20;0.97;;;;;;;6.81;51.46;100896.09;6189391;28;20218;-75
2021/03/06 13:13:35;;;;;;;2.83;1.07;;;;;;;6.69;52.13;100881.34;6187906;28;20248;-74
2021/03/06 13:16:39;;;;;;;8.33;1.30;;;;;;;6.86;51.69;100882.78;6189033;28;20226;-74
2021/03/06 13:19:42;;;;;;;2.73;0.90;;;;;;;6.81;51.87;100863.53;6189548;28;20187;-73
2021/03/06 13:22:46;;;;;;;2.57;0.80;;;;;;;6.65;52.44;100869.22;6188791;28;20208;-74
2021/03/06 13:25:50;;;;;;;0.83;0.83;;;;;;;6.78;52.40;100863.91;6189095;28;20217;-73
2021/03/06 13:28:54;;;;;;;4.70;1.03;;;;;;;6.55;53.01;100857.84;6189255;28;20221;-74
2021/03/06 13:31:57;;;;;;;10.60;1.90;;;;;;;6.67;52.38;100829.19;6189342;28;20288;-74
2021/03/06 13:35:00;;;;;;;5.37;0.97;;;;;;;6.70;52.27;100828.81;6188071;28;20477;-74
2021/03/06 13:38:04;;;;;;;1.00;1.00;;;;;;;6.55;52.27;100814.47;6189532;28;20253;-76
2021/03/06 13:41:08;;;;;;;23.60;1.00;;;;;;;6.56;52.16;100832.41;6189284;28;20189;-74
2021/03/06 13:44:11;;;;;;;1.00;1.00;;;;;;;6.49;52.51;100820.66;6188640;28;20215;-74
2021/03/06 13:47:14;;;;;;;3.50;0.90;;;;;;;6.48;52.33;100818.97;6187825;28;20189;-74
2021/03/06 13:50:18;;;;;;;0.90;0.90;;;;;;;6.61;52.02;100809.13;6189458;28;20187;-73
2021/03/06 13:53:22;;;;;;;2.47;1.00;;;;;;;6.41;52.56;100818.06;6188743;28;20218;-73
2021/03/06 13:56:27;;;;;;;5.10;0.83;;;;;;;6.58;52.27;100797.81;6189130;28;20190;-74
2021/03/06 13:59:30;;;;;;;6.30;0.70;;;;;;;6.49;52.26;100798.97;6187827;28;20389;-75
2021/03/06 14:02:36;;;;;;;18.40;1.87;;;;;;;6.53;52.42;100784.00;6188002;28;20288;-73
2021/03/06 14:05:40;;;;;;;32.60;2.63;;;;;;;6.43;52.08;100788.88;6186764;28;20232;-73
2021/03/06 14:08:43;;;;;;;1.17;0.80;;;;;;;6.43;52.15;100786.16;6187857;28;20189;-76
2021/03/06 14:11:47;;;;;;;2.10;0.80;;;;;;;6.51;51.90;100780.63;6189062;28;20197;-73
2021/03/06 14:14:51;;;;;;;1.50;1.40;;;;;;;6.56;51.71;100778.19;6189991;28;20194;-73
2021/03/06 14:17:54;;;;;;;3.30;0.80;;;;;;;6.46;51.89;100772.25;6193261;28;20213;-74
2021/03/06 14:20:58;;;;;;;12.10;1.30;;;;;;;6.36;52.54;100758.16;6193216;28;20253;-74
2021/03/06 14:24:01;;;;;;;6.03;1.30;;;;;;;6.12;52.85;100753.94;6192422;28;20214;-73
2021/03/06 14:27:07;;;;;;;2.53;0.80;;;;;;;6.17;52.72;100746.91;6191835;28;20195;-73
2021/03/06 14:30:28;;;;;;;2.83;0.90;;;;;;;6.26;52.51;100759.31;6192867;28;20197;-74
2021/03/06 14:33:32;;;;;;;3.33;1.00;;;;;;;6.05;53.10;100725.94;6191748;28;20253;-73